Time;durP1;ratioP1;P1;durP2;ratioP2;P2;SDS_P1;SDS_P2;PMS_P1;PMS_P2;Temp;Humidity;BMP_temperature;BMP_pressure;BME280_temperature;BME280_humidity;BME280_pressure;Samples;Min_cycle;Max_cycle;Signal;HPM_P1;HPM_P2
2021/12/31 00:01:11;;;;;;;;;;;11.70;99.90;;;;;;6345258;22;19902;-95
2021/12/31 00:03:39;;;;;;;;;;;11.70;99.90;;;;;;6345797;22;19931;-95
2021/12/31 00:06:07;;;;;;;;;;;11.70;99.90;;;;;;6345161;22;19909;-95
2021/12/31 00:08:32;;;;;;;;;;;11.70;99.90;;;;;;6349002;22;19924;-95
2021/12/31 00:11:01;;;;;;;;;;;11.70;99.90;;;;;;6345220;22;19906;-95
2021/12/31 00:13:30;;;;;;;;;;;11.70;99.90;;;;;;6345132;22;19951;-95
2021/12/31 00:16:06;;;;;;;;;;;;;;;;;;;;;
2021/12/31 00:18:34;;;;;;;;;;;11.60;99.90;;;;;;6372819;22;19973;-95
2021/12/31 00:21:03;;;;;;;;;;;11.60;99.90;;;;;;6371950;22;19916;-94
2021/12/31 00:23:31;;;;;;;;;;;11.50;99.90;;;;;;6342979;22;19902;-95
2021/12/31 00:25:59;;;;;;;;;;;11.50;99.90;;;;;;6342151;22;19984;-95
2021/12/31 00:28:26;;;;;;;;;;;11.50;99.90;;;;;;6343569;22;19902;-94
2021/12/31 00:30:54;;;;;;;;;;;11.50;99.90;;;;;;6343072;22;19902;-93
2021/12/31 00:33:23;;;;;;;;;;;11.50;99.90;;;;;;6342646;22;19902;-94
2021/12/31 00:35:48;;;;;;;;;;;11.50;99.90;;;;;;6342792;22;19932;-95
2021/12/31 00:38:14;;;;;;;;;;;11.50;99.90;;;;;;6342372;22;20323;-95
2021/12/31 00:40:40;;;;;;;;;;;11.40;99.90;;;;;;6343046;22;19902;-95
2021/12/31 00:43:11;;;;;;;;;;;11.40;99.90;;;;;;6341785;22;19907;-94
2021/12/31 00:45:39;;;;;;;;;;;11.40;99.90;;;;;;6342487;22;19907;-96
2021/12/31 00:48:07;;;;;;;;;;;11.40;99.90;;;;;;6342429;22;19906;-94
2021/12/31 00:50:41;;;;;;;;;;;11.40;99.90;;;;;;6342882;22;20319;-96
2021/12/31 00:53:07;;;;;;;;;;;11.50;99.90;;;;;;6347164;22;19902;-96
2021/12/31 00:55:33;;;;;;;;;;;11.30;99.90;;;;;;6345855;22;19910;-94
2021/12/31 00:58:01;;;;;;;;;;;11.30;99.90;;;;;;6344266;22;19908;-95
2021/12/31 01:00:29;;;;;;;;;;;11.30;99.90;;;;;;6343984;22;19903;-95
2021/12/31 01:02:54;;;;;;;;;;;11.30;99.90;;;;;;6343399;22;19962;-94
2021/12/31 01:05:20;;;;;;;;;;;11.30;99.90;;;;;;6344754;22;19935;-95
2021/12/31 01:07:48;;;;;;;;;;;11.30;99.90;;;;;;6371379;22;19906;-95
2021/12/31 01:10:15;;;;;;;;;;;11.20;99.90;;;;;;6344666;22;20089;-95
2021/12/31 01:12:41;;;;;;;;;;;11.20;99.90;;;;;;6344563;22;19909;-94
2021/12/31 01:15:21;;;;;;;;;;;11.20;99.90;;;;;;6342822;22;20354;-95
2021/12/31 01:20:18;;;;;;;;;;;11.20;99.90;;;;;;6369092;22;20319;-94
2021/12/31 01:22:47;;;;;;;;;;;11.10;99.90;;;;;;6342247;22;20275;-94
2021/12/31 01:25:15;;;;;;;;;;;11.10;99.90;;;;;;6342129;22;19902;-94
2021/12/31 01:27:43;;;;;;;;;;;11.10;99.90;;;;;;6341748;22;19909;-95
2021/12/31 01:30:12;;;;;;;;;;;11.00;99.90;;;;;;6345256;22;19909;-95
2021/12/31 01:32:40;;;;;;;;;;;11.00;99.90;;;;;;6345771;22;19917;-95
2021/12/31 01:35:08;;;;;;;;;;;11.00;99.90;;;;;;6343519;22;19910;-95
2021/12/31 01:37:34;;;;;;;;;;;10.90;99.90;;;;;;6342657;22;20388;-95
2021/12/31 01:40:02;;;;;;;;;;;10.80;99.90;;;;;;6341506;22;19902;-95
2021/12/31 01:42:35;;;;;;;;;;;10.80;99.90;;;;;;6345807;22;19910;-93
2021/12/31 01:45:14;;;;;;;;;;;10.80;99.90;;;;;;6356992;22;19909;-96
2021/12/31 01:50:20;;;;;;;;;;;10.70;99.90;;;;;;6373441;22;19906;-94
2021/12/31 01:52:45;;;;;;;;;;;10.70;99.90;;;;;;6343664;22;20067;-95
2021/12/31 01:55:16;;;;;;;;;;;10.70;99.90;;;;;;6342972;22;19917;-94
2021/12/31 01:57:42;;;;;;;;;;;10.60;99.90;;;;;;6342683;22;19909;-94
2021/12/31 02:00:08;;;;;;;;;;;10.60;99.90;;;;;;6342597;22;20323;-95
2021/12/31 02:02:34;;;;;;;;;;;10.60;99.90;;;;;;6342327;22;19913;-95
2021/12/31 02:05:01;;;;;;;;;;;10.60;99.90;;;;;;6315294;22;19985;-95
2021/12/31 02:07:27;;;;;;;;;;;10.50;99.90;;;;;;6341452;22;19956;-92
2021/12/31 02:09:54;;;;;;;;;;;10.60;99.90;;;;;;6341602;22;19902;-93
2021/12/31 02:12:23;;;;;;;;;;;10.50;99.90;;;;;;6340921;22;19902;-94
2021/12/31 02:14:50;;;;;;;;;;;10.50;99.90;;;;;;6341138;22;19914;-94
2021/12/31 02:17:15;;;;;;;;;;;10.50;99.90;;;;;;6369344;22;19909;-95
2021/12/31 02:19:43;;;;;;;;;;;10.50;99.90;;;;;;6341657;22;19902;-94
2021/12/31 02:22:09;;;;;;;;;;;10.40;99.90;;;;;;6342034;22;19910;-94
2021/12/31 02:24:36;;;;;;;;;;;10.40;99.90;;;;;;6343027;22;19902;-94
2021/12/31 02:27:02;;;;;;;;;;;10.40;99.90;;;;;;6341437;22;19902;-94
2021/12/31 02:29:31;;;;;;;;;;;10.40;99.90;;;;;;6343086;22;19902;-94
2021/12/31 02:31:57;;;;;;;;;;;10.30;99.90;;;;;;6343163;22;19917;-94
2021/12/31 02:34:25;;;;;;;;;;;10.30;99.90;;;;;;6369306;22;19917;-94
2021/12/31 02:36:50;;;;;;;;;;;10.30;99.90;;;;;;6341610;22;19921;-94
2021/12/31 02:39:16;;;;;;;;;;;10.30;99.90;;;;;;6343184;22;19906;-93
2021/12/31 02:41:41;;;;;;;;;;;10.30;99.90;;;;;;6344145;22;19963;-94
2021/12/31 02:44:07;;;;;;;;;;;10.30;99.90;;;;;;6344309;22;19902;-94
2021/12/31 02:46:33;;;;;;;;;;;10.20;99.90;;;;;;6342733;22;19909;-94
2021/12/31 02:48:58;;;;;;;;;;;10.20;99.90;;;;;;6344854;22;19903;-95
2021/12/31 02:51:26;;;;;;;;;;;10.20;99.90;;;;;;6345448;22;19902;-95
2021/12/31 02:53:52;;;;;;;;;;;10.20;99.90;;;;;;6343291;22;19902;-95
2021/12/31 02:56:20;;;;;;;;;;;10.20;99.90;;;;;;6344815;22;19958;-94
2021/12/31 02:58:46;;;;;;;;;;;10.20;99.90;;;;;;6345377;22;19950;-95
2021/12/31 03:01:15;;;;;;;;;;;10.20;99.90;;;;;;6345467;22;19902;-94
2021/12/31 03:03:41;;;;;;;;;;;10.10;99.90;;;;;;6342099;22;19910;-93
2021/12/31 03:06:10;;;;;;;;;;;10.10;99.90;;;;;;6342512;22;19906;-94
2021/12/31 03:08:39;;;;;;;;;;;10.10;99.90;;;;;;6343256;22;19950;-95
2021/12/31 03:11:06;;;;;;;;;;;10.10;99.90;;;;;;6342160;22;19909;-95
2021/12/31 03:13:43;;;;;;;;;;;;;;;;;;;;;
2021/12/31 03:16:09;;;;;;;;;;;10.10;99.90;;;;;;6369783;22;19993;-94
2021/12/31 03:18:35;;;;;;;;;;;10.10;99.90;;;;;;6341984;22;19909;-95
2021/12/31 03:21:12;;;;;;;;;;;10.10;99.90;;;;;;6342782;22;19902;-92
2021/12/31 03:23:37;;;;;;;;;;;9.80;99.90;;;;;;6343276;22;19959;-93
2021/12/31 03:26:13;;;;;;;;;;;;;;;;;;;;;
2021/12/31 03:28:41;;;;;;;;;;;10.10;99.90;;;;;;6371327;22;19977;-95
2021/12/31 03:31:06;;;;;;;;;;;10.10;99.90;;;;;;6343377;22;19929;-94
2021/12/31 03:33:35;;;;;;;;;;;10.00;99.90;;;;;;6344409;22;19902;-91
2021/12/31 03:36:00;;;;;;;;;;;10.00;99.90;;;;;;6344790;22;19910;-94
2021/12/31 03:38:26;;;;;;;;;;;10.00;99.90;;;;;;6343841;22;19906;-94
2021/12/31 03:40:51;;;;;;;;;;;9.90;99.90;;;;;;6343832;22;20078;-95
2021/12/31 03:43:19;;;;;;;;;;;10.00;99.90;;;;;;6345653;22;19902;-94
2021/12/31 03:45:46;;;;;;;;;;;10.00;99.90;;;;;;6347403;22;19902;-96
2021/12/31 03:48:14;;;;;;;;;;;10.00;99.90;;;;;;6346778;22;20337;-95
2021/12/31 03:50:40;;;;;;;;;;;10.00;99.90;;;;;;6346957;22;19922;-94
2021/12/31 03:53:05;;;;;;;;;;;10.00;99.90;;;;;;6347303;22;20322;-95
2021/12/31 03:55:33;;;;;;;;;;;10.00;99.90;;;;;;6347784;22;19910;-93
2021/12/31 03:58:01;;;;;;;;;;;10.00;99.90;;;;;;6348090;22;19951;-95
2021/12/31 04:00:36;;;;;;;;;;;10.00;99.90;;;;;;6347746;22;19902;-94
2021/12/31 04:03:06;;;;;;;;;;;10.10;99.90;;;;;;6346003;22;19911;-96
2021/12/31 04:05:37;;;;;;;;;;;10.10;99.90;;;;;;6348009;22;19934;-94
2021/12/31 04:08:03;;;;;;;;;;;10.10;99.90;;;;;;6348753;22;19925;-95
2021/12/31 04:10:29;;;;;;;;;;;10.20;99.90;;;;;;6351440;22;19909;-95
2021/12/31 04:12:55;;;;;;;;;;;10.20;99.90;;;;;;6351703;22;19902;-96
2021/12/31 04:15:30;;;;;;;;;;;10.20;99.90;;;;;;6349817;22;19972;-95
2021/12/31 04:17:56;;;;;;;;;;;10.20;99.90;;;;;;6356213;22;19913;-93
2021/12/31 04:20:34;;;;;;;;;;;10.30;99.90;;;;;;6351415;22;19902;-95
2021/12/31 04:23:07;;;;;;;;;;;10.30;99.90;;;;;;6344873;22;19916;-95
2021/12/31 04:25:36;;;;;;;;;;;10.30;99.90;;;;;;6342284;22;19933;-93
2021/12/31 04:28:17;;;;;;;;;;;10.30;99.90;;;;;;6347618;22;19923;-93
2021/12/31 04:31:09;;;;;;;;;;;10.40;99.90;;;;;;6368886;22;19902;-95
2021/12/31 04:36:43;;;;;;;;;;;10.50;99.90;;;;;;6352152;22;19913;-94
2021/12/31 04:39:11;;;;;;;;;;;10.60;99.90;;;;;;6341471;22;19933;-95
2021/12/31 04:41:37;;;;;;;;;;;10.60;99.90;;;;;;6341280;22;19959;-95
2021/12/31 04:44:02;;;;;;;;;;;10.60;99.90;;;;;;6369896;22;19906;-96
2021/12/31 04:46:28;;;;;;;;;;;10.60;99.90;;;;;;6340432;22;19903;-95
2021/12/31 04:48:53;;;;;;;;;;;10.60;99.90;;;;;;6341977;22;19902;-94
2021/12/31 04:51:19;;;;;;;;;;;10.60;99.90;;;;;;6341698;22;19952;-95
2021/12/31 04:53:45;;;;;;;;;;;10.60;99.90;;;;;;6341821;22;19902;-94
2021/12/31 04:56:10;;;;;;;;;;;10.60;99.90;;;;;;6370740;22;19917;-94
2021/12/31 04:58:36;;;;;;;;;;;10.60;99.90;;;;;;6345572;22;19940;-92
2021/12/31 05:01:01;;;;;;;;;;;10.60;99.90;;;;;;6345715;22;19902;-94
2021/12/31 05:03:27;;;;;;;;;;;10.60;99.90;;;;;;6344563;22;19910;-95
2021/12/31 05:06:31;;;;;;;;;;;10.50;99.90;;;;;;6347114;22;19906;-93
2021/12/31 05:09:24;;;;;;;;;;;10.50;99.90;;;;;;6363226;22;19917;-95
2021/12/31 05:12:19;;;;;;;;;;;;;;;;;;;;;
2021/12/31 05:15:27;;;;;;;;;;;;;;;;;;;;;
2021/12/31 05:18:24;;;;;;;;;;;10.30;99.90;;;;;;6371783;22;19926;-93
2021/12/31 05:20:52;;;;;;;;;;;10.50;99.90;;;;;;6187618;23;20339;-93
2021/12/31 05:42:30;;;;;;;;;;;10.20;99.90;;;;;;6091287;23;19912;-94
2021/12/31 05:45:01;;;;;;;;;;;10.30;99.90;;;;;;6136701;22;19936;-94
2021/12/31 05:50:40;;;;;;;;;;;;;;;;;;;;;
2021/12/31 05:53:29;;;;;;;;;;;10.40;99.90;;;;;;6272318;22;19978;-94
2021/12/31 05:58:54;;;;;;;;;;;10.60;99.90;;;;;;6210621;23;19904;-93
2021/12/31 06:01:56;;;;;;;;;;;10.60;99.90;;;;;;6334001;22;19909;-93
2021/12/31 06:07:58;;;;;;;;;;;10.70;99.90;;;;;;6362570;22;19906;-94
2021/12/31 06:10:25;;;;;;;;;;;;;;;;;;;;;
2021/12/31 06:12:56;;;;;;;;;;;10.90;99.90;;;;;;6367805;22;19988;-94
2021/12/31 06:15:32;;;;;;;;;;;10.90;99.90;;;;;;6339579;22;19910;-94
2021/12/31 06:17:58;;;;;;;;;;;10.90;99.90;;;;;;6340320;22;19902;-93
2021/12/31 06:20:25;;;;;;;;;;;11.00;99.90;;;;;;6339767;22;20283;-93
2021/12/31 06:32:31;;;;;;;;;;;11.20;99.90;;;;;;6008569;23;19981;-95
2021/12/31 06:35:20;;;;;;;;;;;11.20;99.90;;;;;;5978504;24;19952;-94
2021/12/31 06:41:16;;;;;;;;;;;11.30;99.90;;;;;;6065882;23;19905;-94
2021/12/31 06:47:10;;;;;;;;;;;11.20;99.90;;;;;;6215841;23;19904;-94
2021/12/31 06:49:59;;;;;;;;;;;11.30;99.90;;;;;;6193714;23;19946;-93
2021/12/31 06:52:55;;;;;;;;;;;;;;;;;;;;;
2021/12/31 07:08:00;;;;;;;;;;;;;;;;;;;;;
2021/12/31 07:11:07;;;;;;;;;;;11.40;99.90;;;;;;6098144;23;20040;-93
2021/12/31 07:19:31;;;;;;;;;;;11.40;99.90;;;;;;6214966;23;19908;-94
2021/12/31 07:22:08;;;;;;;;;;;11.40;99.90;;;;;;6219380;23;19915;-94
2021/12/31 07:24:53;;;;;;;;;;;11.40;99.90;;;;;;6311966;22;19913;-94
2021/12/31 07:27:39;;;;;;;;;;;11.40;99.90;;;;;;6342968;22;19902;-94
2021/12/31 07:30:53;;;;;;;;;;;11.50;99.90;;;;;;6346994;22;19907;-95
2021/12/31 07:33:22;;;;;;;;;;;11.40;99.90;;;;;;6365469;22;19902;-94
2021/12/31 07:35:53;;;;;;;;;;;11.40;99.90;;;;;;6345677;22;19993;-94
2021/12/31 07:41:30;;;;;;;;;;;11.50;99.90;;;;;;6314262;22;20235;-95
2021/12/31 07:44:07;;;;;;;;;;;11.50;99.90;;;;;;6347706;22;20289;-94
2021/12/31 07:49:49;;;;;;;;;;;11.50;99.90;;;;;;6353867;22;19932;-94
2021/12/31 07:52:22;;;;;;;;;;;11.50;99.90;;;;;;6342218;22;20319;-92
2021/12/31 07:55:17;;;;;;;;;;;;;;;;;;;;;
2021/12/31 08:04:05;;;;;;;;;;;;;;;;;;;;;
2021/12/31 08:07:02;;;;;;;;;;;11.50;99.90;;;;;;6091363;23;20020;-92
2021/12/31 08:09:43;;;;;;;;;;;;;;;;;;;;;
2021/12/31 08:12:11;;;;;;;;;;;11.50;99.90;;;;;;6094057;23;19991;-94
2021/12/31 08:17:54;;;;;;;;;;;11.60;99.90;;;;;;6209310;23;19951;-93
2021/12/31 08:20:37;;;;;;;;;;;11.50;99.90;;;;;;6187392;23;19904;-95
2021/12/31 08:29:13;;;;;;;;;;;;;;;;;;;;;
2021/12/31 08:31:40;;;;;;;;;;;11.60;99.90;;;;;;6340577;22;19966;-94
2021/12/31 08:34:11;;;;;;;;;;;11.60;99.90;;;;;;6311606;22;19902;-95
2021/12/31 08:39:57;;;;;;;;;;;11.70;99.90;;;;;;6141721;23;20220;-95
2021/12/31 08:43:25;;;;;;;;;;;11.70;99.90;;;;;;6108066;23;19905;-94
2021/12/31 08:48:49;;;;;;;;;;;11.80;99.90;;;;;;6078668;23;19905;-94
2021/12/31 09:10:08;;;;;;;;;;;12.00;99.90;;;;;;6012314;23;20377;-93
2021/12/31 09:12:49;;;;;;;;;;;;;;;;;;;;;
2021/12/31 09:18:22;;;;;;;;;;;12.00;99.90;;;;;;6315368;22;19902;-94
2021/12/31 09:20:54;;;;;;;;;;;12.00;99.90;;;;;;6309742;22;19903;-96
2021/12/31 09:23:52;;;;;;;;;;;;;;;;;;;;;
2021/12/31 09:29:26;;;;;;;;;;;;;;;;;;;;;
2021/12/31 09:31:55;;;;;;;;;;;12.20;99.90;;;;;;6338841;22;19995;-93
2021/12/31 09:34:43;;;;;;;;;;;12.20;99.90;;;;;;6309200;22;19902;-94
2021/12/31 09:37:26;;;;;;;;;;;;;;;;;;;;;
2021/12/31 09:58:51;;;;;;;;;;;;;;;;;;;;;
2021/12/31 10:04:45;;;;;;;;;;;12.80;99.90;;;;;;6090562;23;19913;-93
2021/12/31 10:07:24;;;;;;;;;;;;;;;;;;;;;
2021/12/31 10:13:43;;;;;;;;;;;13.00;99.90;;;;;;6225189;23;19923;-93
2021/12/31 10:16:04;;;;;;;;;;;13.00;99.90;;;;;;6087312;23;19913;-91
2021/12/31 10:18:50;;;;;;;;;;;13.00;99.90;;;;;;6214031;23;19903;-93
2021/12/31 10:24:26;;;;;;;;;;;13.20;99.90;;;;;;6119850;23;20331;-92
2021/12/31 10:27:28;;;;;;;;;;;13.30;99.90;;;;;;6217802;23;19946;-93
2021/12/31 10:33:39;;;;;;;;;;;;;;;;;;;;;
2021/12/31 10:36:09;;;;;;;;;;;;;;;;;;;;;
2021/12/31 10:39:04;;;;;;;;;;;13.50;99.90;;;;;;6357220;22;19970;-91
2021/12/31 10:41:50;;;;;;;;;;;;;;;;;;;;;
2021/12/31 10:44:38;;;;;;;;;;;13.40;99.90;;;;;;6366223;22;19984;-92
2021/12/31 10:47:34;;;;;;;;;;;;;;;;;;;;;
2021/12/31 10:50:26;;;;;;;;;;;;;;;;;;;;;
2021/12/31 10:56:43;;;;;;;;;;;;;;;;;;;;;
2021/12/31 10:59:18;;;;;;;;;;;13.60;99.90;;;;;;6366199;22;19981;-91
2021/12/31 11:05:17;;;;;;;;;;;;;;;;;;;;;
2021/12/31 11:11:26;;;;;;;;;;;13.70;99.90;;;;;;6120421;23;19905;-93
2021/12/31 11:14:02;;;;;;;;;;;13.80;99.90;;;;;;6213900;23;19983;-91
2021/12/31 11:16:46;;;;;;;;;;;13.80;99.90;;;;;;6280870;22;20236;-91
2021/12/31 11:19:17;;;;;;;;;;;13.90;99.90;;;;;;6307108;22;19902;-92
2021/12/31 11:22:05;;;;;;;;;;;13.90;99.90;;;;;;6307522;22;19906;-91
2021/12/31 11:27:26;;;;;;;;;;;13.90;99.90;;;;;;6313675;22;19911;-94
2021/12/31 11:30:14;;;;;;;;;;;14.00;99.90;;;;;;6307479;22;19903;-93
2021/12/31 11:39:46;;;;;;;;;;;;;;;;;;;;;
2021/12/31 22:31:12;;;;;;;;;;;13.40;99.90;;;;;;5864258;24;20279;-91
